LQTZ/TZL METAR and TAF weather

Enter ICAO airport designator
Station Type Date Time Source
LQTZ METAR 2019/02/16 17:00 UTC NOAA

LQTZ 161700Z VRB02KT CAVOK 04/M01 Q1030


Station Type Date Time Source
LQTZ Decoded METAR 2019/02/16 17:00 UTC NOAA

Tuzla, Bosnia and Herzegovina (LQTZ) 44-33N 018-42E
Feb 16, 2019 - 12:00 PM EST / 2019.02.16 1700 UTC
Wind: Variable at 2 MPH (2 KT):0
Visibility: greater than 7 mile(s):0
Temperature: 39 F (4 C)
Dew Point: 30 F (-1 C)
Relative Humidity: 69%
Pressure (altimeter): 30.42 in. Hg (1030 hPa)
ob: LQTZ 161700Z VRB02KT CAVOK 04/M01 Q1030
cycle: 17

Station Type Date Time Source
LQTZ TAF 2019/02/16 18:06 UTC NOAA

TAF LQTZ 161700Z 1618/1718 VRB02KT CAVOK TX12/1713Z TNM03/1706Z
TEMPO 1622/1710 2000 BR PROB30 1704/1709 0300 FZFG BKN001


Example: see airport list